createdAt,value
2023-12-08T00:00:28.026Z,6.38
2023-12-08T00:02:55.959Z,6.03
2023-12-08T00:05:23.884Z,6.95
2023-12-08T00:07:52.003Z,6.20
2023-12-08T00:10:19.882Z,7.20
2023-12-08T00:12:49.283Z,6.07
2023-12-08T00:15:17.229Z,6.40
2023-12-08T00:17:45.213Z,6.00
2023-12-08T00:20:13.567Z,7.82
2023-12-08T00:22:42.462Z,4.57
2023-12-08T00:25:11.928Z,7.50
2023-12-08T00:27:39.830Z,6.10
2023-12-08T00:30:09.974Z,4.88
2023-12-08T00:32:37.979Z,6.85
2023-12-08T00:35:06.581Z,4.53
2023-12-08T00:37:34.773Z,5.47
2023-12-08T00:40:03.462Z,4.78
2023-12-08T00:42:31.354Z,5.57
2023-12-08T00:44:59.211Z,5.63
2023-12-08T00:47:28.816Z,5.22
2023-12-08T00:49:56.871Z,7.20
2023-12-08T00:52:24.828Z,6.95
2023-12-08T00:54:52.585Z,5.72
2023-12-08T00:57:20.475Z,7.03
2023-12-08T00:59:48.388Z,3.40
2023-12-08T01:02:16.315Z,5.60
2023-12-08T01:04:45.561Z,6.65
2023-12-08T01:07:13.479Z,6.88
2023-12-08T01:09:41.333Z,5.13
2023-12-08T01:12:09.252Z,5.93
2023-12-08T01:14:37.194Z,6.57
2023-12-08T01:17:05.606Z,6.15
2023-12-08T01:19:33.702Z,7.15
2023-12-08T01:22:02.931Z,5.43
2023-12-08T01:24:30.768Z,5.82
2023-12-08T01:26:58.680Z,6.22
2023-12-08T01:29:26.595Z,6.97
2023-12-08T01:31:54.447Z,6.80
2023-12-08T01:34:22.428Z,5.85
2023-12-08T01:36:50.547Z,7.32
2023-12-08T01:39:19.874Z,5.55
2023-12-08T01:41:51.840Z,6.95
2023-12-08T01:44:19.976Z,7.30
2023-12-08T01:46:48.700Z,6.55
2023-12-08T01:49:18.110Z,6.45
2023-12-08T01:51:47.321Z,7.20
2023-12-08T01:54:16.890Z,7.45
2023-12-08T01:56:46.259Z,7.90
2023-12-08T01:59:15.502Z,6.25
2023-12-08T02:01:43.472Z,6.68
2023-12-08T02:04:11.558Z,6.80
2023-12-08T02:06:39.604Z,6.57
2023-12-08T02:09:08.968Z,7.15
2023-12-08T02:11:37.456Z,7.15
2023-12-08T02:14:07.886Z,7.22
2023-12-08T02:16:42.563Z,7.47
2023-12-08T02:19:14.568Z,8.15
2023-12-08T02:21:43.317Z,7.15
2023-12-08T02:24:12.609Z,7.55
2023-12-08T02:26:40.742Z,7.45
2023-12-08T02:29:10.717Z,5.07
2023-12-08T02:31:47.867Z,7.07
2023-12-08T02:34:18.015Z,7.38
2023-12-08T02:36:47.457Z,3.88
2023-12-08T02:39:18.790Z,7.38
2023-12-08T02:41:46.824Z,7.50
2023-12-08T02:44:14.686Z,7.93
2023-12-08T02:46:41.607Z,6.80
2023-12-08T02:49:09.622Z,5.60
2023-12-08T02:51:37.585Z,6.57
2023-12-08T02:54:05.703Z,7.80
2023-12-08T02:56:47.386Z,3.83
2023-12-08T02:59:15.471Z,7.15
2023-12-08T03:01:43.368Z,7.82
2023-12-08T03:04:11.172Z,8.38
2023-12-08T03:06:39.020Z,8.40
2023-12-08T03:09:06.983Z,6.97
2023-12-08T03:11:34.843Z,7.30
2023-12-08T03:14:04.051Z,7.55
2023-12-08T03:16:31.927Z,7.38
2023-12-08T03:18:59.999Z,6.53
2023-12-08T03:21:28.190Z,7.05
2023-12-08T03:23:56.111Z,7.97
2023-12-08T03:26:24.187Z,7.43
2023-12-08T03:28:52.013Z,5.97
2023-12-08T03:31:26.447Z,6.78
2023-12-08T03:33:54.666Z,7.82
2023-12-08T03:36:23.166Z,6.53
2023-12-08T03:38:51.251Z,5.70
2023-12-08T03:41:19.121Z,8.85
2023-12-08T03:43:47.070Z,8.07
2023-12-08T03:46:15.006Z,8.40
2023-12-08T03:48:44.512Z,6.95
2023-12-08T03:51:12.782Z,4.22
2023-12-08T03:53:40.862Z,7.18
2023-12-08T03:56:09.697Z,7.10
2023-12-08T03:58:37.684Z,6.80
2023-12-08T04:01:06.113Z,7.68
2023-12-08T04:03:34.634Z,7.55
2023-12-08T04:06:04.264Z,7.88
2023-12-08T04:08:32.275Z,8.07
2023-12-08T04:11:00.199Z,8.25
2023-12-08T04:13:28.104Z,6.60
2023-12-08T04:15:55.912Z,5.10
2023-12-08T04:18:23.891Z,5.28
2023-12-08T04:20:51.910Z,7.50
2023-12-08T04:23:21.103Z,5.97
2023-12-08T04:25:49.060Z,6.68
2023-12-08T04:28:16.893Z,6.20
2023-12-08T04:30:44.785Z,7.72
2023-12-08T04:33:13.561Z,9.13
2023-12-08T04:35:41.532Z,8.18
2023-12-08T04:38:09.391Z,8.63
2023-12-08T04:40:38.677Z,7.80
2023-12-08T04:43:06.551Z,6.45
2023-12-08T04:45:34.457Z,5.88
2023-12-08T04:48:02.499Z,7.10
2023-12-08T04:50:30.517Z,6.40
2023-12-08T04:52:58.297Z,8.85
2023-12-08T04:55:26.679Z,8.50
2023-12-08T04:57:55.894Z,7.28
2023-12-08T05:00:23.822Z,7.20
2023-12-08T05:02:51.665Z,8.93
2023-12-08T05:05:19.823Z,8.75
2023-12-08T05:07:47.808Z,5.25
2023-12-08T05:10:15.670Z,9.02
2023-12-08T05:12:43.585Z,9.07
2023-12-08T05:15:13.142Z,9.15
2023-12-08T05:17:41.471Z,9.20
2023-12-08T05:20:12.801Z,9.73
2023-12-08T05:22:40.697Z,9.68
2023-12-08T05:25:09.620Z,7.75
2023-12-08T05:27:37.608Z,8.98
2023-12-08T05:30:06.545Z,9.05
2023-12-08T05:32:35.821Z,9.48
2023-12-08T05:35:03.756Z,10.07
2023-12-08T05:37:31.662Z,7.65
2023-12-08T05:39:59.477Z,8.43
2023-12-08T05:42:27.390Z,8.70
2023-12-08T05:44:55.282Z,8.90
2023-12-08T05:47:23.189Z,9.23
2023-12-08T05:49:52.598Z,10.30
2023-12-08T05:52:20.507Z,9.38
2023-12-08T05:54:48.337Z,8.55
2023-12-08T05:57:16.232Z,9.98
2023-12-08T05:59:44.145Z,9.10
2023-12-08T06:02:12.067Z,10.70
2023-12-08T06:04:39.884Z,8.98
2023-12-08T06:07:09.346Z,8.43
2023-12-08T06:09:37.393Z,9.70
2023-12-08T06:12:05.934Z,8.30
2023-12-08T06:14:34.321Z,9.40
2023-12-08T06:17:02.200Z,9.68
2023-12-08T06:19:30.937Z,9.65
2023-12-08T06:21:58.940Z,10.23
2023-12-08T06:24:28.203Z,9.65
2023-12-08T06:26:56.187Z,9.82
2023-12-08T06:29:24.050Z,8.52
2023-12-08T06:31:51.950Z,10.27
2023-12-08T06:34:19.952Z,10.40
2023-12-08T06:36:49.103Z,10.02
2023-12-08T06:39:17.772Z,9.57
2023-12-08T06:41:47.170Z,10.02
2023-12-08T06:44:15.189Z,9.98
2023-12-08T06:46:43.895Z,10.73
2023-12-08T06:49:12.108Z,11.23
2023-12-08T06:51:40.002Z,10.68
2023-12-08T06:54:07.941Z,10.85
2023-12-08T06:56:36.605Z,11.60
2023-12-08T06:59:05.978Z,9.57
2023-12-08T07:01:33.793Z,10.77
2023-12-08T07:04:01.761Z,10.23
2023-12-08T07:06:29.636Z,11.18
2023-12-08T07:08:57.586Z,10.70
2023-12-08T07:11:25.621Z,9.95
2023-12-08T07:13:53.510Z,11.07
2023-12-08T07:16:22.765Z,9.90
2023-12-08T07:18:50.852Z,10.10
2023-12-08T07:21:18.909Z,11.25
2023-12-08T07:23:46.851Z,11.02
2023-12-08T07:26:15.269Z,10.93
2023-12-08T07:28:43.775Z,10.70
2023-12-08T07:31:13.258Z,10.20
2023-12-08T07:33:42.582Z,11.55
2023-12-08T07:36:10.946Z,8.65
2023-12-08T07:38:38.887Z,11.25
2023-12-08T07:41:06.966Z,11.00
2023-12-08T07:43:36.207Z,11.95
2023-12-08T07:46:04.907Z,10.70
2023-12-08T07:48:32.845Z,10.20
2023-12-08T07:51:02.079Z,10.27
2023-12-08T07:53:29.924Z,10.55
2023-12-08T07:55:57.776Z,10.25
2023-12-08T07:58:25.556Z,9.55
2023-12-08T08:00:53.368Z,11.73
2023-12-08T08:03:21.340Z,13.10
2023-12-08T08:05:49.470Z,11.65
2023-12-08T08:08:19.199Z,9.75
2023-12-08T08:10:47.133Z,10.13
2023-12-08T08:13:15.060Z,9.80
2023-12-08T08:15:42.842Z,11.43
2023-12-08T08:18:10.787Z,10.07
2023-12-08T08:20:38.684Z,11.25
2023-12-08T08:23:06.542Z,10.98
2023-12-08T08:25:35.803Z,11.43
2023-12-08T08:28:04.612Z,11.15
2023-12-08T08:30:34.441Z,12.02
2023-12-08T08:33:02.635Z,11.00
2023-12-08T08:35:30.647Z,10.93
2023-12-08T08:37:58.525Z,11.00
2023-12-08T08:40:26.362Z,9.75
2023-12-08T08:42:55.515Z,9.95
2023-12-08T08:45:23.396Z,11.02
2023-12-08T08:47:51.363Z,10.55
2023-12-08T08:50:19.237Z,10.23
2023-12-08T08:52:47.229Z,11.73
2023-12-08T08:55:15.095Z,9.77
2023-12-08T08:57:42.861Z,10.30
2023-12-08T09:00:13.798Z,11.13
2023-12-08T09:02:42.095Z,10.93
2023-12-08T09:05:10.449Z,10.30
2023-12-08T09:07:39.186Z,11.98
2023-12-08T09:10:08.645Z,10.70
2023-12-08T09:12:36.585Z,9.43
2023-12-08T09:15:06.717Z,11.00
2023-12-08T09:17:36.098Z,10.32
2023-12-08T09:20:05.659Z,10.95
2023-12-08T09:22:33.672Z,10.75
2023-12-08T09:25:01.466Z,11.05
2023-12-08T09:27:29.371Z,12.10
2023-12-08T09:29:57.470Z,13.13
2023-12-08T09:32:26.054Z,10.98
2023-12-08T09:34:55.508Z,12.18
2023-12-08T09:37:27.903Z,10.98
2023-12-08T09:40:06.668Z,11.32
2023-12-08T09:42:38.331Z,12.02
2023-12-08T09:45:08.367Z,11.60
2023-12-08T09:47:37.070Z,11.77
2023-12-08T09:50:08.476Z,9.60
2023-12-08T09:52:36.718Z,10.48
2023-12-08T09:55:05.223Z,11.65
2023-12-08T09:57:35.191Z,11.73
2023-12-08T10:00:06.981Z,12.48
2023-12-08T10:02:34.984Z,11.00
2023-12-08T10:05:02.891Z,11.07
2023-12-08T10:07:33.432Z,10.82
2023-12-08T10:10:01.314Z,11.27
2023-12-08T10:12:29.519Z,11.95
2023-12-08T10:14:59.078Z,11.88
2023-12-08T10:17:27.659Z,11.43
2023-12-08T10:20:09.801Z,11.88
2023-12-08T10:22:48.482Z,13.05
2023-12-08T10:25:17.203Z,11.85
2023-12-08T10:27:46.674Z,18.27
2023-12-08T10:30:16.331Z,14.48
2023-12-08T10:32:45.088Z,19.75
2023-12-08T10:35:13.995Z,13.93
2023-12-08T10:37:42.606Z,12.45
2023-12-08T10:40:14.020Z,15.40
2023-12-08T10:42:42.061Z,13.75
2023-12-08T10:45:12.154Z,12.98
2023-12-08T10:47:42.427Z,11.45
2023-12-08T10:50:11.392Z,12.77
2023-12-08T10:52:40.226Z,10.30
2023-12-08T10:55:09.487Z,12.18
2023-12-08T10:57:39.418Z,11.05
2023-12-08T11:00:14.181Z,11.75
2023-12-08T11:02:44.868Z,10.40
2023-12-08T11:05:17.223Z,11.13
2023-12-08T11:07:47.642Z,11.85
2023-12-08T11:10:17.291Z,11.35
2023-12-08T11:12:55.523Z,12.25
2023-12-08T11:15:24.426Z,10.65
2023-12-08T11:18:00.290Z,9.70
2023-12-08T11:22:56.189Z,10.35
2023-12-08T11:25:29.829Z,10.65
2023-12-08T11:28:07.040Z,9.80
2023-12-08T11:30:50.526Z,11.02
2023-12-08T11:33:29.134Z,10.25
2023-12-08T11:36:08.178Z,8.85
2023-12-08T11:38:36.126Z,8.38
2023-12-08T11:41:04.199Z,9.25
2023-12-08T11:43:33.567Z,9.00
2023-12-08T11:46:04.442Z,8.77
2023-12-08T11:48:32.393Z,8.75
2023-12-08T11:51:02.499Z,7.03
2023-12-08T11:53:30.561Z,8.90
2023-12-08T11:55:58.444Z,8.07
2023-12-08T11:58:33.808Z,17.55
2023-12-08T12:01:04.283Z,13.85
2023-12-08T12:03:32.688Z,10.88
2023-12-08T12:06:00.905Z,8.63
2023-12-08T12:08:29.172Z,9.30
2023-12-08T12:11:03.956Z,8.85
2023-12-08T12:13:34.932Z,9.33
2023-12-08T12:16:04.433Z,8.43
2023-12-08T12:18:33.918Z,9.68
2023-12-08T12:21:01.861Z,10.18
2023-12-08T12:23:29.823Z,9.38
2023-12-08T12:25:57.952Z,9.35
2023-12-08T12:28:25.778Z,9.90
2023-12-08T12:30:53.666Z,10.05
2023-12-08T12:33:22.988Z,10.57
2023-12-08T12:35:54.394Z,10.63
2023-12-08T12:38:26.483Z,10.07
2023-12-08T12:40:55.033Z,11.27
2023-12-08T12:43:21.819Z,8.73
2023-12-08T12:45:50.561Z,9.15
2023-12-08T12:48:18.550Z,11.52
2023-12-08T12:50:49.034Z,11.65
2023-12-08T12:53:16.925Z,11.43
2023-12-08T12:55:44.843Z,10.73
2023-12-08T12:58:20.323Z,11.23
2023-12-08T13:00:48.695Z,11.77
2023-12-08T13:03:18.807Z,11.85
2023-12-08T13:05:49.394Z,10.40
2023-12-08T13:08:18.322Z,10.52
2023-12-08T13:10:47.124Z,9.57
2023-12-08T13:13:15.108Z,10.38
2023-12-08T13:15:43.898Z,10.23
2023-12-08T13:18:12.066Z,10.43
2023-12-08T13:20:41.354Z,9.13
2023-12-08T13:23:10.804Z,10.35
2023-12-08T13:25:39.068Z,11.20
2023-12-08T13:28:07.096Z,12.57
2023-12-08T13:30:35.042Z,12.10
2023-12-08T13:33:05.919Z,10.70
2023-12-08T13:35:35.304Z,10.65
2023-12-08T13:38:03.281Z,11.13
2023-12-08T13:40:32.461Z,10.40
2023-12-08T13:43:00.292Z,10.35
2023-12-08T13:45:28.291Z,10.07
2023-12-08T13:47:56.348Z,10.38
2023-12-08T13:50:24.337Z,10.38
2023-12-08T13:52:52.232Z,10.05
2023-12-08T13:55:20.167Z,10.02
2023-12-08T13:57:49.774Z,10.10
2023-12-08T14:00:19.118Z,10.40
2023-12-08T14:02:47.415Z,9.98
2023-12-08T14:05:15.532Z,10.30
2023-12-08T14:07:43.508Z,10.93
2023-12-08T14:10:12.341Z,10.18
2023-12-08T14:12:42.166Z,10.13
2023-12-08T14:15:11.776Z,10.95
2023-12-08T14:17:39.604Z,10.02
2023-12-08T14:20:08.840Z,9.95
2023-12-08T14:22:36.972Z,10.07
2023-12-08T14:25:05.064Z,9.95
2023-12-08T14:27:36.550Z,10.10
2023-12-08T14:30:06.538Z,11.95
2023-12-08T14:32:35.855Z,13.60
2023-12-08T14:35:11.049Z,10.95
2023-12-08T14:37:46.829Z,9.75
2023-12-08T14:40:14.974Z,10.25
2023-12-08T14:42:42.770Z,10.02
2023-12-08T14:45:11.886Z,10.68
2023-12-08T14:47:41.532Z,10.18
2023-12-08T14:50:11.369Z,11.23
2023-12-08T14:52:39.483Z,10.00
2023-12-08T14:55:15.796Z,10.95
2023-12-08T14:57:45.045Z,10.52
2023-12-08T15:00:14.816Z,11.65
2023-12-08T15:02:44.897Z,12.20
2023-12-08T15:05:13.200Z,11.63
2023-12-08T15:07:41.582Z,10.70
2023-12-08T15:10:10.304Z,10.70
2023-12-08T15:12:38.462Z,10.95
2023-12-08T15:15:06.991Z,11.27
2023-12-08T15:17:35.530Z,11.00
2023-12-08T15:20:05.752Z,11.05
2023-12-08T15:22:35.067Z,10.85
2023-12-08T15:25:03.990Z,11.30
2023-12-08T15:27:33.754Z,10.45
2023-12-08T15:30:01.773Z,13.13
2023-12-08T15:32:29.729Z,12.13
2023-12-08T15:34:58.664Z,10.32
2023-12-08T15:37:28.173Z,21.73
2023-12-08T15:39:56.913Z,19.58
2023-12-08T15:42:24.827Z,11.30
2023-12-08T15:44:52.997Z,10.63
2023-12-08T15:47:20.862Z,12.50
2023-12-08T15:49:49.104Z,10.45
2023-12-08T15:52:18.895Z,11.32
2023-12-08T15:54:48.227Z,10.23
2023-12-08T15:57:16.211Z,10.88
2023-12-08T15:59:44.330Z,10.82
2023-12-08T16:02:12.305Z,9.90
2023-12-08T16:04:42.609Z,9.68
2023-12-08T16:07:10.425Z,9.05
2023-12-08T16:09:38.332Z,10.55
2023-12-08T16:12:07.949Z,9.90
2023-12-08T16:14:36.424Z,11.10
2023-12-08T16:17:04.510Z,10.45
2023-12-08T16:19:32.371Z,9.80
2023-12-08T16:22:00.262Z,10.07
2023-12-08T16:24:28.204Z,10.50
2023-12-08T16:26:56.047Z,9.60
2023-12-08T16:29:25.293Z,10.02
2023-12-08T16:31:53.159Z,9.05
2023-12-08T16:34:21.161Z,9.77
2023-12-08T16:36:50.289Z,9.32
2023-12-08T16:39:19.480Z,9.13
2023-12-08T16:41:49.299Z,8.65
2023-12-08T16:44:17.220Z,8.68
2023-12-08T16:46:46.863Z,7.95
2023-12-08T16:49:14.877Z,7.13
2023-12-08T16:51:42.844Z,7.03
2023-12-08T16:54:10.813Z,7.00
2023-12-08T16:56:38.664Z,9.13
2023-12-08T16:59:06.614Z,8.05
2023-12-08T17:01:34.738Z,8.70
2023-12-08T17:04:04.148Z,7.53
2023-12-08T17:06:32.241Z,7.53
2023-12-08T17:09:00.250Z,6.95
2023-12-08T17:11:28.291Z,7.40
2023-12-08T17:13:56.290Z,7.78
2023-12-08T17:16:24.277Z,6.63
2023-12-08T17:18:52.180Z,6.70
2023-12-08T17:21:21.506Z,7.35
2023-12-08T17:23:50.041Z,7.45
2023-12-08T17:26:25.297Z,7.00
2023-12-08T17:28:57.466Z,7.00
2023-12-08T17:31:25.428Z,7.47
2023-12-08T17:33:55.055Z,6.32
2023-12-08T17:36:28.749Z,7.35
2023-12-08T17:38:56.723Z,14.18
2023-12-08T17:41:24.644Z,16.83
2023-12-08T17:43:52.457Z,13.02
2023-12-08T17:46:20.410Z,14.52
2023-12-08T17:48:48.604Z,13.82
2023-12-08T17:51:16.814Z,24.00
2023-12-08T17:53:47.221Z,15.43
2023-12-08T17:56:15.706Z,18.27
2023-12-08T17:58:43.962Z,13.98
2023-12-08T18:01:11.909Z,10.73
2023-12-08T18:03:39.893Z,12.30
2023-12-08T18:06:08.631Z,8.85
2023-12-08T18:08:36.699Z,12.10
2023-12-08T18:11:06.201Z,10.77
2023-12-08T18:13:34.009Z,11.80
2023-12-08T18:16:01.835Z,13.02
2023-12-08T18:18:29.779Z,17.35
2023-12-08T18:20:57.693Z,12.27
2023-12-08T18:23:25.523Z,14.10
2023-12-08T18:25:54.531Z,10.90
2023-12-08T18:28:58.142Z,11.80
2023-12-08T18:31:22.106Z,16.77
2023-12-08T18:33:50.813Z,15.05
2023-12-08T18:36:23.026Z,14.63
2023-12-08T18:38:51.651Z,11.18
2023-12-08T18:41:20.155Z,20.17
2023-12-08T18:43:49.775Z,18.02
2023-12-08T18:46:17.989Z,15.98
2023-12-08T18:48:47.420Z,8.07
2023-12-08T18:51:16.152Z,7.60
2023-12-08T18:53:44.168Z,7.65
2023-12-08T18:56:13.387Z,6.95
2023-12-08T18:58:41.221Z,7.18
2023-12-08T19:01:12.147Z,6.45
2023-12-08T19:03:40.036Z,6.97
2023-12-08T19:06:11.531Z,8.68
2023-12-08T19:08:40.101Z,10.45
2023-12-08T19:11:08.292Z,11.35
2023-12-08T19:13:36.630Z,10.13
2023-12-08T19:16:06.961Z,7.75
2023-12-08T19:18:36.263Z,7.13
2023-12-08T19:21:04.292Z,6.78
2023-12-08T19:23:34.524Z,6.90
2023-12-08T19:26:05.475Z,8.27
2023-12-08T19:28:33.694Z,8.20
2023-12-08T19:31:01.517Z,6.75
2023-12-08T19:33:29.592Z,6.85
2023-12-08T19:35:58.995Z,6.50
2023-12-08T19:38:30.485Z,7.00
2023-12-08T19:40:58.378Z,6.93
2023-12-08T19:43:28.394Z,6.65
2023-12-08T19:45:56.228Z,7.63
2023-12-08T19:48:24.218Z,7.05
2023-12-08T19:50:52.648Z,6.93
2023-12-08T19:53:21.926Z,7.38
2023-12-08T19:55:49.778Z,7.65
2023-12-08T19:58:17.930Z,7.50
2023-12-08T20:00:45.804Z,8.30
2023-12-08T20:03:13.864Z,7.60
2023-12-08T20:05:41.990Z,7.95
2023-12-08T20:08:09.860Z,6.90
2023-12-08T20:10:39.536Z,7.63
2023-12-08T20:13:07.434Z,6.78
2023-12-08T20:15:35.344Z,6.20
2023-12-08T20:18:03.966Z,6.57
2023-12-08T20:20:31.928Z,6.07
2023-12-08T20:22:59.744Z,6.53
2023-12-08T20:25:27.574Z,6.63
2023-12-08T20:27:56.719Z,6.43
2023-12-08T20:30:24.571Z,6.63
2023-12-08T20:32:52.498Z,6.10
2023-12-08T20:35:20.419Z,6.20
2023-12-08T20:37:48.263Z,5.93
2023-12-08T20:40:16.604Z,6.18
2023-12-08T20:42:44.481Z,6.40
2023-12-08T20:45:14.078Z,6.45
2023-12-08T20:47:41.992Z,7.07
2023-12-08T20:50:10.699Z,6.68
2023-12-08T20:52:38.561Z,6.43
2023-12-08T20:55:06.867Z,6.28
2023-12-08T20:57:34.863Z,6.20
2023-12-08T21:00:03.404Z,6.93
2023-12-08T21:02:32.789Z,6.00
2023-12-08T21:05:00.707Z,6.30
2023-12-08T21:07:28.841Z,6.15
2023-12-08T21:09:56.894Z,6.22
2023-12-08T21:12:24.734Z,5.70
2023-12-08T21:14:52.722Z,6.38
2023-12-08T21:17:19.927Z,5.43
2023-12-08T21:19:49.122Z,5.28
2023-12-08T21:22:17.000Z,5.30
2023-12-08T21:24:44.859Z,4.90
2023-12-08T21:27:15.279Z,5.47
2023-12-08T21:29:43.702Z,4.93
2023-12-08T21:32:11.717Z,5.28
2023-12-08T21:34:39.634Z,5.93
2023-12-08T21:37:08.795Z,5.88
2023-12-08T21:39:36.889Z,5.68
2023-12-08T21:42:05.057Z,4.90
2023-12-08T21:44:32.885Z,5.32
2023-12-08T21:47:00.686Z,5.15
2023-12-08T21:49:30.008Z,5.00
2023-12-08T21:51:58.169Z,4.93
2023-12-08T21:54:27.666Z,4.78
2023-12-08T21:56:56.534Z,4.65
2023-12-08T21:59:24.454Z,4.45
2023-12-08T22:01:52.409Z,4.88
2023-12-08T22:04:20.796Z,5.20
2023-12-08T22:06:49.208Z,5.30
2023-12-08T22:09:17.066Z,4.22
2023-12-08T22:11:46.334Z,4.95
2023-12-08T22:14:14.254Z,4.65
2023-12-08T22:16:42.078Z,4.53
2023-12-08T22:19:11.469Z,4.80
2023-12-08T22:21:39.348Z,4.43
2023-12-08T22:24:07.737Z,4.50
2023-12-08T22:26:35.621Z,4.53
2023-12-08T22:29:04.797Z,3.97
2023-12-08T22:31:32.710Z,4.32
2023-12-08T22:34:00.716Z,4.25
2023-12-08T22:36:29.047Z,3.92
2023-12-08T22:38:57.120Z,4.22
2023-12-08T22:41:25.306Z,4.45
2023-12-08T22:43:54.115Z,3.47
2023-12-08T22:46:23.336Z,4.07
2023-12-08T22:48:51.935Z,3.97
2023-12-08T22:51:25.752Z,3.80
2023-12-08T22:54:01.178Z,4.07
2023-12-08T22:56:29.040Z,3.95
2023-12-08T22:58:56.949Z,3.45
2023-12-08T23:01:26.176Z,3.20
2023-12-08T23:03:54.054Z,3.60
2023-12-08T23:06:22.053Z,3.70
2023-12-08T23:08:50.037Z,3.97
2023-12-08T23:11:18.184Z,4.07
2023-12-08T23:13:46.005Z,3.65
2023-12-08T23:16:14.274Z,3.60
2023-12-08T23:18:43.960Z,3.70
2023-12-08T23:21:11.962Z,4.05
2023-12-08T23:23:39.787Z,4.07
2023-12-08T23:26:08.090Z,3.47
2023-12-08T23:28:35.970Z,3.78
2023-12-08T23:31:04.400Z,4.18
2023-12-08T23:33:32.647Z,4.28
2023-12-08T23:36:02.085Z,3.90
2023-12-08T23:38:30.002Z,3.72
2023-12-08T23:40:57.882Z,4.53
2023-12-08T23:43:25.795Z,4.05
2023-12-08T23:45:53.651Z,3.95
2023-12-08T23:48:22.056Z,3.65
2023-12-08T23:50:50.320Z,3.88
2023-12-08T23:53:20.506Z,4.65
2023-12-08T23:55:48.459Z,3.65
2023-12-08T23:58:16.315Z,3.80
